sensor_id;sensor_type;location;lat;lon;timestamp;P1;durP1;ratioP1;P2;durP2;ratioP2
12359;SDS011;6244;51.460;7.090;2024-02-16T00:04:01;0.77;;;0.77;;
12359;SDS011;6244;51.460;7.090;2024-02-16T00:08:58;1.52;;;1.05;;
12359;SDS011;6244;51.460;7.090;2024-02-16T00:13:56;1.30;;;1.15;;
12359;SDS011;6244;51.460;7.090;2024-02-16T00:18:52;1.13;;;1.00;;
12359;SDS011;6244;51.460;7.090;2024-02-16T00:23:49;2.08;;;1.23;;
12359;SDS011;6244;51.460;7.090;2024-02-16T00:28:46;1.80;;;1.30;;
12359;SDS011;6244;51.460;7.090;2024-02-16T00:33:43;2.47;;;1.30;;
12359;SDS011;6244;51.460;7.090;2024-02-16T00:38:40;2.35;;;1.38;;
12359;SDS011;6244;51.460;7.090;2024-02-16T00:43:36;1.40;;;1.02;;
12359;SDS011;6244;51.460;7.090;2024-02-16T00:48:34;1.98;;;1.10;;
12359;SDS011;6244;51.460;7.090;2024-02-16T00:53:32;1.73;;;0.93;;
12359;SDS011;6244;51.460;7.090;2024-02-16T00:58:28;0.93;;;0.90;;
12359;SDS011;6244;51.460;7.090;2024-02-16T01:03:25;1.65;;;1.15;;
12359;SDS011;6244;51.460;7.090;2024-02-16T01:08:22;1.25;;;1.13;;
12359;SDS011;6244;51.460;7.090;2024-02-16T01:13:20;2.25;;;1.33;;
12359;SDS011;6244;51.460;7.090;2024-02-16T01:18:16;2.05;;;1.05;;
12359;SDS011;6244;51.460;7.090;2024-02-16T01:23:13;1.15;;;1.00;;
12359;SDS011;6244;51.460;7.090;2024-02-16T01:28:09;1.25;;;1.05;;
12359;SDS011;6244;51.460;7.090;2024-02-16T01:33:08;4.40;;;1.60;;
12359;SDS011;6244;51.460;7.090;2024-02-16T01:38:05;2.83;;;1.63;;
12359;SDS011;6244;51.460;7.090;2024-02-16T01:43:02;2.47;;;1.10;;
12359;SDS011;6244;51.460;7.090;2024-02-16T01:47:58;2.05;;;1.00;;
12359;SDS011;6244;51.460;7.090;2024-02-16T01:52:56;1.20;;;1.10;;
12359;SDS011;6244;51.460;7.090;2024-02-16T01:57:53;1.92;;;1.35;;
12359;SDS011;6244;51.460;7.090;2024-02-16T02:02:50;2.70;;;1.73;;
12359;SDS011;6244;51.460;7.090;2024-02-16T02:07:47;1.58;;;1.27;;
12359;SDS011;6244;51.460;7.090;2024-02-16T02:12:45;1.77;;;1.50;;
12359;SDS011;6244;51.460;7.090;2024-02-16T02:17:42;2.67;;;1.67;;
12359;SDS011;6244;51.460;7.090;2024-02-16T02:22:39;1.38;;;1.08;;
12359;SDS011;6244;51.460;7.090;2024-02-16T02:27:36;1.23;;;1.10;;
12359;SDS011;6244;51.460;7.090;2024-02-16T02:32:32;2.67;;;1.70;;
12359;SDS011;6244;51.460;7.090;2024-02-16T02:37:29;1.77;;;1.25;;
12359;SDS011;6244;51.460;7.090;2024-02-16T02:42:27;2.00;;;1.60;;
12359;SDS011;6244;51.460;7.090;2024-02-16T02:47:24;1.90;;;1.40;;
12359;SDS011;6244;51.460;7.090;2024-02-16T02:52:21;2.30;;;1.50;;
12359;SDS011;6244;51.460;7.090;2024-02-16T02:57:17;2.15;;;1.30;;
12359;SDS011;6244;51.460;7.090;2024-02-16T03:02:15;1.40;;;1.30;;
12359;SDS011;6244;51.460;7.090;2024-02-16T03:07:12;1.10;;;1.00;;
12359;SDS011;6244;51.460;7.090;2024-02-16T03:12:09;1.17;;;1.08;;
12359;SDS011;6244;51.460;7.090;2024-02-16T03:17:05;1.23;;;1.10;;
12359;SDS011;6244;51.460;7.090;2024-02-16T03:22:03;3.03;;;1.63;;
12359;SDS011;6244;51.460;7.090;2024-02-16T03:27:00;2.28;;;1.67;;
12359;SDS011;6244;51.460;7.090;2024-02-16T03:31:56;2.15;;;1.42;;
12359;SDS011;6244;51.460;7.090;2024-02-16T03:36:53;2.38;;;1.60;;
12359;SDS011;6244;51.460;7.090;2024-02-16T03:41:51;1.73;;;1.40;;
12359;SDS011;6244;51.460;7.090;2024-02-16T03:46:48;1.55;;;1.00;;
12359;SDS011;6244;51.460;7.090;2024-02-16T03:51:44;1.23;;;1.13;;
12359;SDS011;6244;51.460;7.090;2024-02-16T03:56:41;1.80;;;1.25;;
12359;SDS011;6244;51.460;7.090;2024-02-16T04:01:38;0.88;;;0.88;;
12359;SDS011;6244;51.460;7.090;2024-02-16T04:06:37;2.00;;;1.60;;
12359;SDS011;6244;51.460;7.090;2024-02-16T04:11:34;2.15;;;1.40;;
12359;SDS011;6244;51.460;7.090;2024-02-16T04:16:31;2.63;;;1.30;;
12359;SDS011;6244;51.460;7.090;2024-02-16T04:21:29;3.30;;;1.80;;
12359;SDS011;6244;51.460;7.090;2024-02-16T04:26:25;0.82;;;0.82;;
12359;SDS011;6244;51.460;7.090;2024-02-16T04:31:22;2.78;;;1.67;;
12359;SDS011;6244;51.460;7.090;2024-02-16T04:36:18;1.40;;;1.25;;
12359;SDS011;6244;51.460;7.090;2024-02-16T04:41:16;0.85;;;0.80;;
12359;SDS011;6244;51.460;7.090;2024-02-16T04:46:15;2.60;;;1.20;;
12359;SDS011;6244;51.460;7.090;2024-02-16T04:51:12;1.48;;;1.25;;
12359;SDS011;6244;51.460;7.090;2024-02-16T04:56:08;1.30;;;1.20;;
12359;SDS011;6244;51.460;7.090;2024-02-16T05:01:06;1.40;;;1.23;;
12359;SDS011;6244;51.460;7.090;2024-02-16T05:06:03;3.97;;;1.70;;
12359;SDS011;6244;51.460;7.090;2024-02-16T05:11:00;1.73;;;1.52;;
12359;SDS011;6244;51.460;7.090;2024-02-16T05:15:56;0.70;;;0.70;;
12359;SDS011;6244;51.460;7.090;2024-02-16T05:20:54;5.80;;;1.80;;
12359;SDS011;6244;51.460;7.090;2024-02-16T05:25:50;1.17;;;1.00;;
12359;SDS011;6244;51.460;7.090;2024-02-16T05:30:49;1.52;;;1.08;;
12359;SDS011;6244;51.460;7.090;2024-02-16T05:35:45;1.40;;;1.30;;
12359;SDS011;6244;51.460;7.090;2024-02-16T05:40:47;2.25;;;1.75;;
12359;SDS011;6244;51.460;7.090;2024-02-16T05:45:51;1.15;;;1.02;;
12359;SDS011;6244;51.460;7.090;2024-02-16T05:50:48;2.03;;;1.40;;
12359;SDS011;6244;51.460;7.090;2024-02-16T05:55:45;2.20;;;1.52;;
12359;SDS011;6244;51.460;7.090;2024-02-16T06:00:44;1.85;;;1.30;;
12359;SDS011;6244;51.460;7.090;2024-02-16T06:05:42;1.92;;;1.58;;
12359;SDS011;6244;51.460;7.090;2024-02-16T06:10:39;4.00;;;1.60;;
12359;SDS011;6244;51.460;7.090;2024-02-16T06:15:36;2.35;;;1.40;;
12359;SDS011;6244;51.460;7.090;2024-02-16T06:20:34;6.18;;;1.77;;
12359;SDS011;6244;51.460;7.090;2024-02-16T06:25:31;1.90;;;1.33;;
12359;SDS011;6244;51.460;7.090;2024-02-16T06:30:27;1.23;;;1.02;;
12359;SDS011;6244;51.460;7.090;2024-02-16T06:35:24;2.03;;;1.48;;
12359;SDS011;6244;51.460;7.090;2024-02-16T06:40:22;2.58;;;2.08;;
12359;SDS011;6244;51.460;7.090;2024-02-16T06:45:20;3.25;;;1.85;;
12359;SDS011;6244;51.460;7.090;2024-02-16T06:50:16;2.42;;;1.85;;
12359;SDS011;6244;51.460;7.090;2024-02-16T06:55:13;1.92;;;1.45;;
12359;SDS011;6244;51.460;7.090;2024-02-16T07:00:11;1.20;;;0.90;;
12359;SDS011;6244;51.460;7.090;2024-02-16T07:05:11;4.75;;;1.50;;
12359;SDS011;6244;51.460;7.090;2024-02-16T07:10:08;1.35;;;1.25;;
12359;SDS011;6244;51.460;7.090;2024-02-16T07:15:08;3.30;;;2.28;;
12359;SDS011;6244;51.460;7.090;2024-02-16T07:20:07;2.42;;;1.63;;
12359;SDS011;6244;51.460;7.090;2024-02-16T07:25:04;2.63;;;1.75;;
12359;SDS011;6244;51.460;7.090;2024-02-16T07:30:01;2.15;;;1.45;;
12359;SDS011;6244;51.460;7.090;2024-02-16T07:34:59;3.05;;;2.08;;
12359;SDS011;6244;51.460;7.090;2024-02-16T07:39:57;2.17;;;1.55;;
12359;SDS011;6244;51.460;7.090;2024-02-16T07:44:53;3.20;;;1.77;;
12359;SDS011;6244;51.460;7.090;2024-02-16T07:49:50;4.15;;;1.88;;
12359;SDS011;6244;51.460;7.090;2024-02-16T07:54:46;2.28;;;1.83;;
12359;SDS011;6244;51.460;7.090;2024-02-16T07:59:44;1.42;;;1.27;;
12359;SDS011;6244;51.460;7.090;2024-02-16T08:04:41;3.35;;;1.73;;
12359;SDS011;6244;51.460;7.090;2024-02-16T08:09:37;0.93;;;0.93;;
12359;SDS011;6244;51.460;7.090;2024-02-16T08:14:34;1.75;;;1.30;;
12359;SDS011;6244;51.460;7.090;2024-02-16T08:19:32;2.03;;;1.80;;
12359;SDS011;6244;51.460;7.090;2024-02-16T08:24:31;1.48;;;0.80;;
12359;SDS011;6244;51.460;7.090;2024-02-16T08:29:28;2.28;;;2.00;;
12359;SDS011;6244;51.460;7.090;2024-02-16T08:34:24;1.92;;;1.42;;
12359;SDS011;6244;51.460;7.090;2024-02-16T08:39:22;1.92;;;1.67;;
12359;SDS011;6244;51.460;7.090;2024-02-16T08:44:20;1.30;;;1.02;;
12359;SDS011;6244;51.460;7.090;2024-02-16T08:49:16;2.17;;;1.20;;
12359;SDS011;6244;51.460;7.090;2024-02-16T08:54:13;1.23;;;1.02;;
12359;SDS011;6244;51.460;7.090;2024-02-16T08:59:11;2.58;;;1.55;;
12359;SDS011;6244;51.460;7.090;2024-02-16T09:04:07;1.48;;;1.30;;
12359;SDS011;6244;51.460;7.090;2024-02-16T09:09:04;1.10;;;0.88;;
12359;SDS011;6244;51.460;7.090;2024-02-16T09:14:02;2.42;;;1.35;;
12359;SDS011;6244;51.460;7.090;2024-02-16T09:19:00;2.72;;;1.55;;
12359;SDS011;6244;51.460;7.090;2024-02-16T09:23:56;1.58;;;1.15;;
12359;SDS011;6244;51.460;7.090;2024-02-16T09:28:57;3.20;;;1.58;;
12359;SDS011;6244;51.460;7.090;2024-02-16T09:33:53;2.45;;;1.05;;
12359;SDS011;6244;51.460;7.090;2024-02-16T09:38:51;1.15;;;1.05;;
12359;SDS011;6244;51.460;7.090;2024-02-16T09:43:48;0.60;;;0.60;;
12359;SDS011;6244;51.460;7.090;2024-02-16T09:48:48;2.65;;;1.58;;
12359;SDS011;6244;51.460;7.090;2024-02-16T09:53:50;2.33;;;1.73;;
12359;SDS011;6244;51.460;7.090;2024-02-16T09:58:51;1.88;;;1.63;;
12359;SDS011;6244;51.460;7.090;2024-02-16T10:03:47;3.85;;;1.67;;
12359;SDS011;6244;51.460;7.090;2024-02-16T10:08:48;3.53;;;1.85;;
12359;SDS011;6244;51.460;7.090;2024-02-16T10:13:56;3.25;;;1.92;;
12359;SDS011;6244;51.460;7.090;2024-02-16T10:18:54;3.38;;;1.55;;
12359;SDS011;6244;51.460;7.090;2024-02-16T10:23:59;3.80;;;2.17;;
12359;SDS011;6244;51.460;7.090;2024-02-16T10:28:58;2.50;;;1.08;;
12359;SDS011;6244;51.460;7.090;2024-02-16T10:33:55;9.30;;;1.98;;
12359;SDS011;6244;51.460;7.090;2024-02-16T10:38:54;2.33;;;1.50;;
12359;SDS011;6244;51.460;7.090;2024-02-16T10:43:51;2.47;;;1.48;;
12359;SDS011;6244;51.460;7.090;2024-02-16T10:48:51;4.30;;;2.30;;
12359;SDS011;6244;51.460;7.090;2024-02-16T10:53:47;2.92;;;1.35;;
12359;SDS011;6244;51.460;7.090;2024-02-16T10:58:47;2.05;;;1.85;;
12359;SDS011;6244;51.460;7.090;2024-02-16T11:03:44;2.20;;;1.80;;
12359;SDS011;6244;51.460;7.090;2024-02-16T11:08:42;4.47;;;2.00;;
12359;SDS011;6244;51.460;7.090;2024-02-16T11:13:38;4.05;;;2.05;;
12359;SDS011;6244;51.460;7.090;2024-02-16T11:18:39;3.10;;;1.83;;
12359;SDS011;6244;51.460;7.090;2024-02-16T11:23:38;2.28;;;1.88;;
12359;SDS011;6244;51.460;7.090;2024-02-16T11:28:37;2.95;;;1.70;;
12359;SDS011;6244;51.460;7.090;2024-02-16T11:33:36;1.65;;;1.55;;
12359;SDS011;6244;51.460;7.090;2024-02-16T11:38:32;1.33;;;1.17;;
12359;SDS011;6244;51.460;7.090;2024-02-16T11:43:30;2.35;;;1.65;;
12359;SDS011;6244;51.460;7.090;2024-02-16T11:48:29;2.45;;;1.52;;
12359;SDS011;6244;51.460;7.090;2024-02-16T11:53:27;1.80;;;1.65;;
12359;SDS011;6244;51.460;7.090;2024-02-16T11:58:24;2.20;;;1.95;;
12359;SDS011;6244;51.460;7.090;2024-02-16T12:03:21;3.50;;;1.45;;
12359;SDS011;6244;51.460;7.090;2024-02-16T12:08:19;2.72;;;2.13;;
12359;SDS011;6244;51.460;7.090;2024-02-16T12:13:16;2.65;;;1.95;;
12359;SDS011;6244;51.460;7.090;2024-02-16T12:18:20;1.50;;;1.40;;
12359;SDS011;6244;51.460;7.090;2024-02-16T12:23:17;5.38;;;1.83;;
12359;SDS011;6244;51.460;7.090;2024-02-16T12:28:15;1.92;;;1.20;;
12359;SDS011;6244;51.460;7.090;2024-02-16T12:33:11;3.90;;;2.03;;
12359;SDS011;6244;51.460;7.090;2024-02-16T12:38:08;4.07;;;2.40;;
12359;SDS011;6244;51.460;7.090;2024-02-16T12:43:04;3.65;;;3.08;;
12359;SDS011;6244;51.460;7.090;2024-02-16T12:48:05;3.17;;;2.03;;
12359;SDS011;6244;51.460;7.090;2024-02-16T12:53:02;5.43;;;2.33;;
12359;SDS011;6244;51.460;7.090;2024-02-16T12:57:59;2.85;;;1.90;;
12359;SDS011;6244;51.460;7.090;2024-02-16T13:02:55;1.75;;;1.58;;
12359;SDS011;6244;51.460;7.090;2024-02-16T13:07:53;2.42;;;1.65;;
12359;SDS011;6244;51.460;7.090;2024-02-16T13:12:50;2.15;;;1.85;;
12359;SDS011;6244;51.460;7.090;2024-02-16T13:17:46;4.20;;;2.15;;
12359;SDS011;6244;51.460;7.090;2024-02-16T13:22:43;2.03;;;1.77;;
12359;SDS011;6244;51.460;7.090;2024-02-16T13:27:40;1.40;;;1.30;;
12359;SDS011;6244;51.460;7.090;2024-02-16T13:32:37;2.95;;;1.73;;
12359;SDS011;6244;51.460;7.090;2024-02-16T13:37:34;3.67;;;2.75;;
12359;SDS011;6244;51.460;7.090;2024-02-16T13:42:32;1.85;;;1.70;;
12359;SDS011;6244;51.460;7.090;2024-02-16T13:47:30;3.60;;;3.03;;
12359;SDS011;6244;51.460;7.090;2024-02-16T13:52:26;6.80;;;3.00;;
12359;SDS011;6244;51.460;7.090;2024-02-16T13:57:23;4.85;;;2.38;;
12359;SDS011;6244;51.460;7.090;2024-02-16T14:02:20;4.40;;;2.33;;
12359;SDS011;6244;51.460;7.090;2024-02-16T14:07:18;4.57;;;2.63;;
12359;SDS011;6244;51.460;7.090;2024-02-16T14:12:15;3.92;;;2.63;;
12359;SDS011;6244;51.460;7.090;2024-02-16T14:17:11;4.63;;;3.40;;
12359;SDS011;6244;51.460;7.090;2024-02-16T14:22:09;5.00;;;3.15;;
12359;SDS011;6244;51.460;7.090;2024-02-16T14:27:08;6.55;;;3.38;;
12359;SDS011;6244;51.460;7.090;2024-02-16T14:32:05;4.75;;;2.53;;
12359;SDS011;6244;51.460;7.090;2024-02-16T14:37:02;6.07;;;3.05;;
12359;SDS011;6244;51.460;7.090;2024-02-16T14:41:59;8.85;;;4.57;;
12359;SDS011;6244;51.460;7.090;2024-02-16T14:46:57;6.57;;;4.03;;
12359;SDS011;6244;51.460;7.090;2024-02-16T14:51:53;11.75;;;5.18;;
12359;SDS011;6244;51.460;7.090;2024-02-16T14:56:50;8.18;;;4.38;;
12359;SDS011;6244;51.460;7.090;2024-02-16T15:01:47;7.28;;;4.28;;
12359;SDS011;6244;51.460;7.090;2024-02-16T15:06:45;6.93;;;3.38;;
12359;SDS011;6244;51.460;7.090;2024-02-16T15:11:42;6.07;;;3.38;;
12359;SDS011;6244;51.460;7.090;2024-02-16T15:16:38;6.10;;;3.42;;
12359;SDS011;6244;51.460;7.090;2024-02-16T15:21:35;8.60;;;5.20;;
12359;SDS011;6244;51.460;7.090;2024-02-16T15:26:33;8.75;;;4.70;;
12359;SDS011;6244;51.460;7.090;2024-02-16T15:31:29;10.23;;;5.53;;
12359;SDS011;6244;51.460;7.090;2024-02-16T15:36:26;8.95;;;4.68;;
12359;SDS011;6244;51.460;7.090;2024-02-16T15:41:22;8.77;;;4.80;;
12359;SDS011;6244;51.460;7.090;2024-02-16T15:46:20;13.43;;;5.70;;
12359;SDS011;6244;51.460;7.090;2024-02-16T15:51:16;10.27;;;5.32;;
12359;SDS011;6244;51.460;7.090;2024-02-16T15:56:13;7.28;;;3.80;;
12359;SDS011;6244;51.460;7.090;2024-02-16T16:01:09;5.43;;;3.50;;
12359;SDS011;6244;51.460;7.090;2024-02-16T16:06:07;8.40;;;4.18;;
12359;SDS011;6244;51.460;7.090;2024-02-16T16:11:05;7.22;;;4.20;;
12359;SDS011;6244;51.460;7.090;2024-02-16T16:16:02;8.48;;;3.33;;
12359;SDS011;6244;51.460;7.090;2024-02-16T16:20:58;8.38;;;3.78;;
12359;SDS011;6244;51.460;7.090;2024-02-16T16:25:57;7.68;;;3.53;;
12359;SDS011;6244;51.460;7.090;2024-02-16T16:30:54;6.93;;;3.88;;
12359;SDS011;6244;51.460;7.090;2024-02-16T16:35:50;7.30;;;4.40;;
12359;SDS011;6244;51.460;7.090;2024-02-16T16:40:47;9.25;;;4.75;;
12359;SDS011;6244;51.460;7.090;2024-02-16T16:45:45;6.63;;;4.38;;
12359;SDS011;6244;51.460;7.090;2024-02-16T16:50:41;8.15;;;3.58;;
12359;SDS011;6244;51.460;7.090;2024-02-16T16:55:39;8.75;;;4.10;;
12359;SDS011;6244;51.460;7.090;2024-02-16T17:00:35;8.00;;;4.35;;
12359;SDS011;6244;51.460;7.090;2024-02-16T17:05:33;5.72;;;3.65;;
12359;SDS011;6244;51.460;7.090;2024-02-16T17:10:30;5.47;;;3.72;;
12359;SDS011;6244;51.460;7.090;2024-02-16T17:15:26;6.82;;;3.90;;
12359;SDS011;6244;51.460;7.090;2024-02-16T17:20:27;7.13;;;4.07;;
12359;SDS011;6244;51.460;7.090;2024-02-16T17:25:25;8.30;;;3.65;;
12359;SDS011;6244;51.460;7.090;2024-02-16T17:30:22;4.97;;;3.22;;
12359;SDS011;6244;51.460;7.090;2024-02-16T17:35:19;6.15;;;3.70;;
12359;SDS011;6244;51.460;7.090;2024-02-16T17:40:16;6.38;;;3.90;;
12359;SDS011;6244;51.460;7.090;2024-02-16T17:45:14;7.07;;;3.38;;
12359;SDS011;6244;51.460;7.090;2024-02-16T17:50:10;5.72;;;3.28;;
12359;SDS011;6244;51.460;7.090;2024-02-16T17:55:08;4.22;;;2.70;;
12359;SDS011;6244;51.460;7.090;2024-02-16T18:00:05;3.70;;;2.10;;
12359;SDS011;6244;51.460;7.090;2024-02-16T18:05:04;3.70;;;2.22;;
12359;SDS011;6244;51.460;7.090;2024-02-16T18:10:01;8.35;;;2.78;;
12359;SDS011;6244;51.460;7.090;2024-02-16T18:14:59;3.20;;;2.28;;
12359;SDS011;6244;51.460;7.090;2024-02-16T18:19:56;5.15;;;2.92;;
12359;SDS011;6244;51.460;7.090;2024-02-16T18:24:53;5.55;;;3.40;;
12359;SDS011;6244;51.460;7.090;2024-02-16T18:29:50;7.10;;;2.92;;
12359;SDS011;6244;51.460;7.090;2024-02-16T18:34:47;7.38;;;3.50;;
12359;SDS011;6244;51.460;7.090;2024-02-16T18:39:43;6.15;;;3.03;;
12359;SDS011;6244;51.460;7.090;2024-02-16T18:44:41;5.78;;;3.70;;
12359;SDS011;6244;51.460;7.090;2024-02-16T18:49:38;5.45;;;2.55;;
12359;SDS011;6244;51.460;7.090;2024-02-16T18:54:34;7.15;;;3.42;;
12359;SDS011;6244;51.460;7.090;2024-02-16T18:59:31;4.90;;;3.03;;
12359;SDS011;6244;51.460;7.090;2024-02-16T19:04:29;5.88;;;3.50;;
12359;SDS011;6244;51.460;7.090;2024-02-16T19:09:25;7.40;;;3.33;;
12359;SDS011;6244;51.460;7.090;2024-02-16T19:14:22;3.75;;;2.47;;
12359;SDS011;6244;51.460;7.090;2024-02-16T19:19:19;5.05;;;2.85;;
12359;SDS011;6244;51.460;7.090;2024-02-16T19:24:17;4.43;;;2.45;;
12359;SDS011;6244;51.460;7.090;2024-02-16T19:29:14;6.00;;;2.47;;
12359;SDS011;6244;51.460;7.090;2024-02-16T19:34:10;3.78;;;2.55;;
12359;SDS011;6244;51.460;7.090;2024-02-16T19:39:07;4.13;;;2.97;;
12359;SDS011;6244;51.460;7.090;2024-02-16T19:44:06;3.33;;;2.15;;
12359;SDS011;6244;51.460;7.090;2024-02-16T19:49:03;4.82;;;2.88;;
12359;SDS011;6244;51.460;7.090;2024-02-16T19:53:59;4.72;;;2.20;;
12359;SDS011;6244;51.460;7.090;2024-02-16T19:58:58;4.47;;;2.40;;
12359;SDS011;6244;51.460;7.090;2024-02-16T20:03:56;8.75;;;3.28;;
12359;SDS011;6244;51.460;7.090;2024-02-16T20:08:53;5.13;;;2.80;;
12359;SDS011;6244;51.460;7.090;2024-02-16T20:13:49;4.75;;;2.85;;
12359;SDS011;6244;51.460;7.090;2024-02-16T20:18:49;6.57;;;3.17;;
12359;SDS011;6244;51.460;7.090;2024-02-16T20:23:48;7.50;;;4.05;;
12359;SDS011;6244;51.460;7.090;2024-02-16T20:28:44;8.25;;;4.00;;
12359;SDS011;6244;51.460;7.090;2024-02-16T20:33:41;9.57;;;4.43;;
12359;SDS011;6244;51.460;7.090;2024-02-16T20:38:39;8.00;;;4.15;;
12359;SDS011;6244;51.460;7.090;2024-02-16T20:43:38;9.88;;;5.15;;
12359;SDS011;6244;51.460;7.090;2024-02-16T20:48:34;11.13;;;5.20;;
12359;SDS011;6244;51.460;7.090;2024-02-16T20:53:31;11.65;;;5.20;;
12359;SDS011;6244;51.460;7.090;2024-02-16T20:58:27;6.95;;;4.55;;
12359;SDS011;6244;51.460;7.090;2024-02-16T21:03:25;10.35;;;5.50;;
12359;SDS011;6244;51.460;7.090;2024-02-16T21:08:22;14.13;;;5.60;;
12359;SDS011;6244;51.460;7.090;2024-02-16T21:13:19;10.27;;;4.60;;
12359;SDS011;6244;51.460;7.090;2024-02-16T21:18:15;11.20;;;5.75;;
12359;SDS011;6244;51.460;7.090;2024-02-16T21:23:14;7.57;;;4.63;;
12359;SDS011;6244;51.460;7.090;2024-02-16T21:28:10;11.15;;;5.50;;
12359;SDS011;6244;51.460;7.090;2024-02-16T21:33:07;10.18;;;4.60;;
12359;SDS011;6244;51.460;7.090;2024-02-16T21:38:05;8.88;;;4.97;;
12359;SDS011;6244;51.460;7.090;2024-02-16T21:43:03;8.93;;;4.47;;
12359;SDS011;6244;51.460;7.090;2024-02-16T21:48:00;12.43;;;6.35;;
12359;SDS011;6244;51.460;7.090;2024-02-16T21:52:57;14.65;;;6.18;;
12359;SDS011;6244;51.460;7.090;2024-02-16T21:57:54;9.77;;;5.65;;
12359;SDS011;6244;51.460;7.090;2024-02-16T22:02:52;14.20;;;6.32;;
12359;SDS011;6244;51.460;7.090;2024-02-16T22:07:48;11.95;;;5.97;;
12359;SDS011;6244;51.460;7.090;2024-02-16T22:12:45;16.13;;;6.68;;
12359;SDS011;6244;51.460;7.090;2024-02-16T22:17:41;13.27;;;5.53;;
12359;SDS011;6244;51.460;7.090;2024-02-16T22:22:39;15.80;;;5.88;;
12359;SDS011;6244;51.460;7.090;2024-02-16T22:27:36;10.02;;;4.82;;
12359;SDS011;6244;51.460;7.090;2024-02-16T22:32:32;12.63;;;6.13;;
12359;SDS011;6244;51.460;7.090;2024-02-16T22:37:29;12.30;;;5.85;;
12359;SDS011;6244;51.460;7.090;2024-02-16T22:42:27;16.50;;;6.57;;
12359;SDS011;6244;51.460;7.090;2024-02-16T22:47:23;12.40;;;6.07;;
12359;SDS011;6244;51.460;7.090;2024-02-16T22:52:20;14.50;;;6.43;;
12359;SDS011;6244;51.460;7.090;2024-02-16T22:57:16;8.25;;;4.97;;
12359;SDS011;6244;51.460;7.090;2024-02-16T23:02:14;9.60;;;4.97;;
12359;SDS011;6244;51.460;7.090;2024-02-16T23:07:11;11.32;;;4.72;;
12359;SDS011;6244;51.460;7.090;2024-02-16T23:12:07;8.73;;;4.85;;
12359;SDS011;6244;51.460;7.090;2024-02-16T23:17:05;14.05;;;6.78;;
12359;SDS011;6244;51.460;7.090;2024-02-16T23:22:03;12.55;;;6.03;;
12359;SDS011;6244;51.460;7.090;2024-02-16T23:26:59;13.60;;;5.97;;
12359;SDS011;6244;51.460;7.090;2024-02-16T23:31:56;14.35;;;6.82;;
12359;SDS011;6244;51.460;7.090;2024-02-16T23:36:54;13.00;;;5.95;;
12359;SDS011;6244;51.460;7.090;2024-02-16T23:41:53;15.27;;;6.38;;
12359;SDS011;6244;51.460;7.090;2024-02-16T23:46:49;14.43;;;5.93;;
12359;SDS011;6244;51.460;7.090;2024-02-16T23:51:47;16.38;;;6.30;;
12359;SDS011;6244;51.460;7.090;2024-02-16T23:56:44;14.23;;;6.28;;
